createdAt,value
2022-10-13T00:01:23.503Z,6.13
2022-10-13T00:03:53.646Z,6.15
2022-10-13T00:06:26.076Z,6.17
2022-10-13T00:08:54.970Z,6.17
2022-10-13T00:11:26.008Z,6.16
2022-10-13T00:14:03.829Z,6.15
2022-10-13T00:16:34.507Z,6.12
2022-10-13T00:19:02.313Z,6.09
2022-10-13T00:21:30.216Z,6.06
2022-10-13T00:23:58.291Z,6.03
2022-10-13T00:26:27.385Z,6.00
2022-10-13T00:28:56.512Z,5.95
2022-10-13T00:31:27.706Z,5.92
2022-10-13T00:33:59.789Z,5.89
2022-10-13T00:36:28.464Z,5.85
2022-10-13T00:38:57.512Z,5.83
2022-10-13T00:41:26.072Z,5.82
2022-10-13T00:44:03.181Z,5.80
2022-10-13T00:46:37.292Z,5.76
2022-10-13T00:49:12.886Z,5.72
2022-10-13T00:51:47.838Z,5.69
2022-10-13T00:54:21.665Z,5.65
2022-10-13T00:56:51.676Z,5.62
2022-10-13T00:59:27.541Z,5.59
2022-10-13T01:02:01.281Z,5.57
2022-10-13T01:04:33.271Z,5.56
2022-10-13T01:07:02.596Z,5.53
2022-10-13T01:09:37.546Z,5.52
2022-10-13T01:12:22.350Z,5.51
2022-10-13T01:14:56.267Z,5.50
2022-10-13T01:17:39.559Z,5.48
2022-10-13T01:20:33.249Z,5.49
2022-10-13T01:23:39.188Z,5.50
2022-10-13T01:26:22.183Z,5.51
2022-10-13T01:29:21.352Z,5.53
2022-10-13T01:31:52.394Z,5.56
2022-10-13T01:34:41.718Z,5.58
2022-10-13T01:37:27.675Z,5.59
2022-10-13T01:40:05.480Z,5.59
2022-10-13T01:42:52.116Z,5.58
2022-10-13T01:45:29.395Z,5.59
2022-10-13T01:47:59.980Z,5.60
2022-10-13T01:50:28.418Z,5.60
2022-10-13T01:53:01.937Z,5.59
2022-10-13T01:55:29.966Z,5.61
2022-10-13T01:57:59.466Z,5.62
2022-10-13T02:00:30.218Z,5.63
2022-10-13T02:03:48.134Z,5.64
2022-10-13T02:06:24.448Z,5.65
2022-10-13T02:09:14.357Z,5.67
2022-10-13T02:11:51.738Z,5.68
2022-10-13T02:14:41.364Z,5.68
2022-10-13T02:17:10.579Z,5.69
2022-10-13T02:19:41.555Z,5.70
2022-10-13T02:22:15.263Z,5.71
2022-10-13T02:24:47.255Z,5.72
2022-10-13T02:27:15.805Z,5.71
2022-10-13T02:29:53.335Z,5.72
2022-10-13T02:32:23.686Z,5.72
2022-10-13T02:34:52.998Z,5.71
2022-10-13T02:37:21.017Z,5.69
2022-10-13T02:39:48.823Z,5.68
2022-10-13T02:42:18.069Z,5.66
2022-10-13T02:44:46.211Z,5.65
2022-10-13T02:47:14.086Z,5.66
2022-10-13T02:49:41.964Z,5.66
2022-10-13T02:52:09.764Z,5.65
2022-10-13T02:54:42.994Z,5.65
2022-10-13T02:57:11.005Z,5.65
2022-10-13T02:59:41.503Z,5.64
2022-10-13T03:02:09.365Z,5.63
2022-10-13T03:04:37.213Z,5.63
2022-10-13T03:07:05.252Z,5.64
2022-10-13T03:09:34.319Z,5.67
2022-10-13T03:12:02.427Z,5.68
2022-10-13T03:14:36.853Z,5.68
2022-10-13T03:17:09.836Z,5.69
2022-10-13T03:19:40.864Z,5.71
2022-10-13T03:22:14.949Z,5.73
2022-10-13T03:24:43.252Z,5.74
2022-10-13T03:27:11.499Z,5.75
2022-10-13T03:29:39.217Z,5.77
2022-10-13T03:32:11.070Z,5.79
2022-10-13T03:34:39.020Z,5.81
2022-10-13T03:37:07.575Z,5.82
2022-10-13T03:39:40.303Z,5.83
2022-10-13T03:42:10.415Z,5.84
2022-10-13T03:44:39.265Z,5.84
2022-10-13T03:47:07.235Z,5.85
2022-10-13T03:49:39.300Z,5.82
2022-10-13T03:52:07.112Z,5.77
2022-10-13T03:54:35.723Z,5.77
2022-10-13T03:57:03.692Z,5.77
2022-10-13T03:59:36.567Z,5.78
2022-10-13T04:02:07.183Z,5.78
2022-10-13T04:04:35.438Z,5.79
2022-10-13T04:07:03.637Z,5.79
2022-10-13T04:09:32.479Z,5.77
2022-10-13T04:12:00.886Z,5.76
2022-10-13T04:14:29.810Z,5.75
2022-10-13T04:17:04.139Z,5.73
2022-10-13T04:19:32.552Z,5.68
2022-10-13T04:22:04.442Z,5.64
2022-10-13T04:24:32.557Z,5.61
2022-10-13T04:27:01.881Z,5.61
2022-10-13T04:29:30.136Z,5.60
2022-10-13T04:32:01.315Z,5.60
2022-10-13T04:34:29.112Z,5.60
2022-10-13T04:36:57.216Z,5.60
2022-10-13T04:39:26.173Z,5.61
2022-10-13T04:41:53.964Z,5.59
2022-10-13T04:44:22.223Z,5.59
2022-10-13T04:46:50.038Z,5.58
2022-10-13T04:49:18.708Z,5.57
2022-10-13T04:51:47.831Z,5.56
2022-10-13T04:54:15.728Z,5.57
2022-10-13T04:56:46.458Z,5.57
2022-10-13T04:59:14.420Z,5.56
2022-10-13T05:01:43.471Z,5.56
2022-10-13T05:04:15.287Z,5.55
2022-10-13T05:07:12.427Z,5.53
2022-10-13T05:09:32.640Z,5.48
2022-10-13T05:12:03.705Z,5.45
2022-10-13T05:14:33.051Z,5.44
2022-10-13T05:17:02.431Z,5.43
2022-10-13T05:19:30.349Z,5.40
2022-10-13T05:21:59.216Z,5.39
2022-10-13T05:24:38.996Z,5.38
2022-10-13T05:27:11.475Z,5.37
2022-10-13T05:29:41.364Z,5.36
2022-10-13T05:32:10.270Z,5.36
2022-10-13T05:34:40.508Z,5.39
2022-10-13T05:37:08.763Z,5.43
2022-10-13T05:39:36.865Z,5.49
2022-10-13T05:42:04.779Z,5.56
2022-10-13T05:44:33.389Z,5.65
2022-10-13T05:47:06.493Z,5.75
2022-10-13T05:49:40.381Z,5.88
2022-10-13T05:52:12.106Z,6.01
2022-10-13T05:54:46.896Z,6.14
2022-10-13T05:57:20.504Z,6.27
2022-10-13T05:59:52.431Z,6.40
2022-10-13T06:02:23.972Z,6.53
2022-10-13T06:04:57.193Z,6.66
2022-10-13T06:07:25.409Z,6.82
2022-10-13T06:09:53.303Z,6.98
2022-10-13T06:12:21.619Z,7.14
2022-10-13T06:14:52.176Z,7.33
2022-10-13T06:17:22.584Z,7.51
2022-10-13T06:19:50.839Z,7.69
2022-10-13T06:22:19.960Z,7.88
2022-10-13T06:24:50.564Z,8.06
2022-10-13T06:27:18.973Z,8.24
2022-10-13T06:29:50.192Z,8.42
2022-10-13T06:32:22.633Z,8.59
2022-10-13T06:34:52.504Z,8.79
2022-10-13T06:37:26.924Z,8.98
2022-10-13T06:39:57.555Z,9.17
2022-10-13T06:42:26.880Z,9.35
2022-10-13T06:45:10.864Z,9.54
2022-10-13T06:47:41.538Z,9.69
2022-10-13T06:50:10.731Z,9.87
2022-10-13T06:52:38.833Z,10.00
2022-10-13T06:55:09.314Z,10.13
2022-10-13T06:57:39.367Z,10.25
2022-10-13T07:00:12.661Z,10.36
2022-10-13T07:02:40.701Z,10.47
2022-10-13T07:05:09.292Z,10.56
2022-10-13T07:07:37.772Z,10.63
2022-10-13T07:10:06.162Z,10.71
2022-10-13T07:12:34.289Z,10.82
2022-10-13T07:15:02.121Z,10.94
2022-10-13T07:17:35.461Z,11.05
2022-10-13T07:20:07.405Z,11.20
2022-10-13T07:22:42.733Z,11.34
2022-10-13T07:25:10.894Z,11.50
2022-10-13T07:27:41.191Z,11.61
2022-10-13T07:30:10.028Z,11.72
2022-10-13T07:32:39.494Z,11.81
2022-10-13T07:35:14.560Z,11.91
2022-10-13T07:37:42.721Z,12.04
2022-10-13T07:40:12.408Z,12.15
2022-10-13T07:42:48.454Z,12.28
2022-10-13T07:45:17.264Z,12.41
2022-10-13T07:47:45.334Z,12.53
2022-10-13T07:50:16.042Z,12.65
2022-10-13T07:52:45.185Z,12.75
2022-10-13T07:55:16.421Z,12.88
2022-10-13T07:57:47.662Z,12.99
2022-10-13T08:00:16.240Z,13.07
2022-10-13T08:02:44.375Z,13.17
2022-10-13T08:05:12.356Z,13.26
2022-10-13T08:07:42.068Z,13.36
2022-10-13T08:10:10.821Z,13.46
2022-10-13T08:12:38.742Z,13.56
2022-10-13T08:15:11.161Z,13.67
2022-10-13T08:17:40.366Z,13.77
2022-10-13T08:20:09.611Z,13.88
2022-10-13T08:22:38.521Z,13.99
2022-10-13T08:25:08.147Z,14.09
2022-10-13T08:27:50.554Z,14.20
2022-10-13T08:30:19.903Z,14.30
2022-10-13T08:32:48.360Z,14.39
2022-10-13T08:35:17.386Z,14.48
2022-10-13T08:37:47.243Z,14.58
2022-10-13T08:40:20.252Z,14.68
2022-10-13T08:42:49.325Z,14.79
2022-10-13T08:45:40.962Z,14.88
2022-10-13T08:48:13.990Z,14.98
2022-10-13T08:50:45.753Z,15.08
2022-10-13T08:53:30.511Z,15.18
2022-10-13T08:56:09.545Z,15.31
2022-10-13T08:58:41.982Z,15.43
2022-10-13T09:01:24.654Z,15.53
2022-10-13T09:04:30.160Z,15.64
2022-10-13T09:07:14.708Z,15.74
2022-10-13T09:09:43.552Z,15.83
2022-10-13T09:12:13.409Z,15.91
2022-10-13T09:14:56.089Z,15.99
2022-10-13T09:17:27.608Z,16.08
2022-10-13T09:20:03.658Z,16.18
2022-10-13T09:22:35.607Z,16.29
2022-10-13T09:25:14.383Z,16.36
2022-10-13T09:27:51.313Z,16.37
2022-10-13T09:30:39.623Z,16.46
2022-10-13T09:33:20.156Z,16.59
2022-10-13T09:36:00.115Z,16.69
2022-10-13T09:38:29.912Z,16.76
2022-10-13T09:41:15.917Z,16.83
2022-10-13T09:43:51.528Z,16.93
2022-10-13T09:46:48.543Z,17.03
2022-10-13T09:49:39.228Z,17.11
2022-10-13T09:52:13.710Z,17.21
2022-10-13T09:54:54.092Z,17.29
2022-10-13T09:57:43.740Z,17.39
2022-10-13T10:00:14.917Z,17.47
2022-10-13T10:02:52.446Z,17.53
2022-10-13T10:05:47.738Z,17.59
2022-10-13T10:09:01.474Z,17.67
2022-10-13T10:11:34.288Z,17.71
2022-10-13T10:14:26.545Z,17.78
2022-10-13T10:17:29.607Z,17.88
2022-10-13T10:20:10.431Z,17.96
2022-10-13T10:22:59.902Z,18.05
2022-10-13T10:25:47.336Z,18.11
2022-10-13T10:28:36.553Z,18.15
2022-10-13T10:31:30.363Z,18.22
2022-10-13T10:34:28.643Z,18.31
2022-10-13T10:37:48.400Z,18.39
2022-10-13T10:40:28.300Z,18.39
2022-10-13T10:43:17.718Z,18.40
2022-10-13T10:45:47.359Z,18.44
2022-10-13T10:48:23.161Z,18.50
2022-10-13T10:50:53.786Z,18.52
2022-10-13T10:53:38.417Z,18.59
2022-10-13T10:56:28.846Z,18.69
2022-10-13T10:59:20.764Z,18.75
2022-10-13T11:02:09.167Z,18.84
2022-10-13T11:04:46.279Z,18.90
2022-10-13T11:07:23.331Z,18.90
2022-10-13T11:09:57.829Z,18.85
2022-10-13T11:12:52.771Z,18.77
2022-10-13T11:15:43.672Z,18.71
2022-10-13T11:18:50.876Z,18.73
2022-10-13T11:21:20.128Z,18.75
2022-10-13T11:23:50.773Z,18.71
2022-10-13T11:26:26.040Z,18.73
2022-10-13T11:28:55.176Z,18.76
2022-10-13T11:31:32.201Z,18.79
2022-10-13T11:34:27.808Z,18.87
2022-10-13T11:36:57.981Z,18.98
2022-10-13T11:39:27.821Z,19.05
2022-10-13T11:42:11.867Z,19.07
2022-10-13T11:44:56.023Z,19.10
2022-10-13T11:48:05.771Z,19.10
2022-10-13T11:51:26.352Z,19.14
2022-10-13T11:54:13.723Z,19.19
2022-10-13T11:56:49.642Z,19.21
2022-10-13T11:59:21.794Z,19.24
2022-10-13T12:01:55.698Z,19.33
2022-10-13T12:04:26.190Z,19.40
2022-10-13T12:07:01.140Z,19.46
2022-10-13T12:09:32.320Z,19.52
2022-10-13T12:12:13.909Z,19.58
2022-10-13T12:14:44.454Z,19.64
2022-10-13T12:17:35.990Z,19.70
2022-10-13T12:20:21.185Z,19.72
2022-10-13T12:22:50.534Z,19.70
2022-10-13T12:25:21.508Z,19.71
2022-10-13T12:27:55.506Z,19.72
2022-10-13T12:30:37.797Z,19.76
2022-10-13T12:33:29.096Z,19.79
2022-10-13T12:36:12.384Z,19.81
2022-10-13T12:38:47.195Z,19.83
2022-10-13T12:41:24.757Z,19.85
2022-10-13T12:43:54.468Z,19.87
2022-10-13T12:46:40.139Z,19.88
2022-10-13T12:49:15.963Z,19.84
2022-10-13T12:51:48.196Z,19.83
2022-10-13T12:54:28.820Z,19.82
2022-10-13T12:57:01.161Z,19.82
2022-10-13T12:59:31.119Z,19.77
2022-10-13T13:02:02.660Z,19.74
2022-10-13T13:04:41.337Z,19.73
2022-10-13T13:07:38.786Z,19.73
2022-10-13T13:10:23.298Z,19.76
2022-10-13T13:12:56.883Z,19.75
2022-10-13T13:15:36.215Z,19.74
2022-10-13T13:18:26.699Z,19.75
2022-10-13T13:20:54.935Z,19.76
2022-10-13T13:23:24.723Z,19.77
2022-10-13T13:26:16.671Z,19.80
2022-10-13T13:28:50.455Z,19.80
2022-10-13T13:31:22.217Z,19.78
2022-10-13T13:33:50.933Z,19.74
2022-10-13T13:36:23.857Z,19.70
2022-10-13T13:38:54.975Z,19.67
2022-10-13T13:41:27.809Z,19.64
2022-10-13T13:43:55.938Z,19.60
2022-10-13T13:46:25.800Z,19.59
2022-10-13T13:48:53.902Z,19.57
2022-10-13T13:51:26.744Z,19.56
2022-10-13T13:53:54.946Z,19.54
2022-10-13T13:56:28.462Z,19.51
2022-10-13T13:58:56.398Z,19.47
2022-10-13T14:01:25.024Z,19.44
2022-10-13T14:03:53.411Z,19.40
2022-10-13T14:06:24.864Z,19.36
2022-10-13T14:08:58.123Z,19.33
2022-10-13T14:11:26.102Z,19.30
2022-10-13T14:13:58.126Z,19.27
2022-10-13T14:16:29.691Z,19.19
2022-10-13T14:19:01.274Z,19.15
2022-10-13T14:21:31.104Z,19.13
2022-10-13T14:23:59.066Z,19.08
2022-10-13T14:26:27.347Z,19.02
2022-10-13T14:28:57.581Z,18.96
2022-10-13T14:31:26.166Z,18.91
2022-10-13T14:33:54.500Z,18.88
2022-10-13T14:36:26.219Z,18.84
2022-10-13T14:38:55.260Z,18.79
2022-10-13T14:41:23.795Z,18.69
2022-10-13T14:43:56.998Z,18.58
2022-10-13T14:46:28.334Z,18.46
2022-10-13T14:48:59.115Z,18.36
2022-10-13T14:51:30.241Z,18.29
2022-10-13T14:54:00.468Z,18.23
2022-10-13T14:56:30.508Z,18.17
2022-10-13T14:59:01.670Z,18.11
2022-10-13T15:01:38.942Z,18.05
2022-10-13T15:04:07.321Z,17.99
2022-10-13T15:06:42.868Z,17.93
2022-10-13T15:09:12.562Z,17.87
2022-10-13T15:11:41.226Z,17.80
2022-10-13T15:14:09.955Z,17.72
2022-10-13T15:16:38.085Z,17.66
2022-10-13T15:19:06.014Z,17.58
2022-10-13T15:21:34.092Z,17.50
2022-10-13T15:24:02.961Z,17.42
2022-10-13T15:26:32.215Z,17.34
2022-10-13T15:29:00.382Z,17.26
2022-10-13T15:31:31.401Z,17.17
2022-10-13T15:33:59.327Z,17.09
2022-10-13T15:36:28.097Z,17.00
2022-10-13T15:38:56.427Z,16.90
2022-10-13T15:41:28.218Z,16.79
2022-10-13T15:43:56.084Z,16.70
2022-10-13T15:46:28.733Z,16.61
2022-10-13T15:48:57.242Z,16.50
2022-10-13T15:51:27.281Z,16.40
2022-10-13T15:53:56.464Z,16.31
2022-10-13T15:56:26.579Z,16.21
2022-10-13T15:58:56.858Z,16.13
2022-10-13T16:01:27.964Z,16.06
2022-10-13T16:03:56.310Z,15.97
2022-10-13T16:06:25.184Z,15.86
2022-10-13T16:08:53.832Z,15.75
2022-10-13T16:11:26.568Z,15.66
2022-10-13T16:13:55.215Z,15.57
2022-10-13T16:16:23.029Z,15.50
2022-10-13T16:18:51.686Z,15.42
2022-10-13T16:21:23.545Z,15.35
2022-10-13T16:23:53.854Z,15.26
2022-10-13T16:26:22.734Z,15.20
2022-10-13T16:28:55.555Z,15.13
2022-10-13T16:31:25.057Z,15.06
2022-10-13T16:33:53.007Z,15.01
2022-10-13T16:36:22.978Z,14.95
2022-10-13T16:38:54.865Z,14.88
2022-10-13T16:41:24.163Z,14.81
2022-10-13T16:43:53.577Z,14.74
2022-10-13T16:46:22.341Z,14.68
2022-10-13T16:48:51.777Z,14.60
2022-10-13T16:51:23.982Z,14.52
2022-10-13T16:53:58.726Z,14.45
2022-10-13T16:56:31.601Z,14.37
2022-10-13T16:59:02.150Z,14.28
2022-10-13T17:01:31.695Z,14.20
2022-10-13T17:04:05.148Z,14.14
2022-10-13T17:06:41.469Z,14.07
2022-10-13T17:09:12.117Z,13.99
2022-10-13T17:11:43.736Z,13.91
2022-10-13T17:14:12.330Z,13.85
2022-10-13T17:16:44.309Z,13.79
2022-10-13T17:19:12.747Z,13.73
2022-10-13T17:21:44.311Z,13.66
2022-10-13T17:24:12.552Z,13.60
2022-10-13T17:26:42.948Z,13.55
2022-10-13T17:29:11.257Z,13.50
2022-10-13T17:31:40.443Z,13.45
2022-10-13T17:34:10.202Z,13.40
2022-10-13T17:36:38.772Z,13.35
2022-10-13T17:39:18.355Z,13.29
2022-10-13T17:41:46.673Z,13.25
2022-10-13T17:44:20.816Z,13.20
2022-10-13T17:46:50.219Z,13.16
2022-10-13T17:49:18.766Z,13.12
2022-10-13T17:51:50.644Z,13.09
2022-10-13T17:54:19.780Z,13.05
2022-10-13T17:56:50.441Z,13.01
2022-10-13T17:59:18.644Z,12.98
2022-10-13T18:01:47.784Z,12.95
2022-10-13T18:04:18.595Z,12.91
2022-10-13T18:06:47.375Z,12.87
2022-10-13T18:09:20.575Z,12.82
2022-10-13T18:11:51.635Z,12.80
2022-10-13T18:14:22.725Z,12.79
2022-10-13T18:16:55.430Z,12.77
2022-10-13T18:19:23.496Z,12.78
2022-10-13T18:21:53.217Z,12.80
2022-10-13T18:24:22.245Z,12.83
2022-10-13T18:26:51.147Z,12.86
2022-10-13T18:29:20.177Z,12.89
2022-10-13T18:31:50.671Z,12.94
2022-10-13T18:34:18.745Z,13.00
2022-10-13T18:36:50.634Z,13.05
2022-10-13T18:39:27.249Z,13.10
2022-10-13T18:41:58.366Z,13.14
2022-10-13T18:44:35.315Z,13.19
2022-10-13T18:47:03.366Z,13.23
2022-10-13T18:49:31.786Z,13.26
2022-10-13T18:52:02.069Z,13.30
2022-10-13T18:54:30.676Z,13.33
2022-10-13T18:56:59.843Z,13.37
2022-10-13T18:59:27.873Z,13.40
2022-10-13T19:01:57.595Z,13.43
2022-10-13T19:04:29.981Z,13.44
2022-10-13T19:06:57.906Z,13.46
2022-10-13T19:09:26.511Z,13.49
2022-10-13T19:11:57.672Z,13.49
2022-10-13T19:14:27.563Z,13.50
2022-10-13T19:17:01.913Z,13.49
2022-10-13T19:19:31.763Z,13.48
2022-10-13T19:22:07.995Z,13.46
2022-10-13T19:24:37.455Z,13.43
2022-10-13T19:27:06.932Z,13.40
2022-10-13T19:29:37.527Z,13.38
2022-10-13T19:32:06.696Z,13.34
2022-10-13T19:34:35.065Z,13.31
2022-10-13T19:37:05.415Z,13.28
2022-10-13T19:39:34.496Z,13.24
2022-10-13T19:42:03.495Z,13.20
2022-10-13T19:44:31.481Z,13.16
2022-10-13T19:47:02.376Z,13.12
2022-10-13T19:49:30.811Z,13.09
2022-10-13T19:52:01.481Z,13.06
2022-10-13T19:54:33.769Z,13.02
2022-10-13T19:57:03.152Z,12.97
2022-10-13T19:59:31.151Z,12.93
2022-10-13T20:02:03.321Z,12.89
2022-10-13T20:04:31.766Z,12.85
2022-10-13T20:07:01.412Z,12.80
2022-10-13T20:09:29.395Z,12.74
2022-10-13T20:11:57.249Z,12.68
2022-10-13T20:14:25.139Z,12.65
2022-10-13T20:16:53.550Z,12.61
2022-10-13T20:19:24.267Z,12.59
2022-10-13T20:21:53.344Z,12.57
2022-10-13T20:24:23.357Z,12.54
2022-10-13T20:26:51.593Z,12.52
2022-10-13T20:29:23.629Z,12.50
2022-10-13T20:31:51.674Z,12.47
2022-10-13T20:34:21.048Z,12.46
2022-10-13T20:36:51.427Z,12.45
2022-10-13T20:39:21.393Z,12.44
2022-10-13T20:41:49.907Z,12.44
2022-10-13T20:44:19.655Z,12.42
2022-10-13T20:46:50.229Z,12.42
2022-10-13T20:49:19.581Z,12.41
2022-10-13T20:51:48.035Z,12.41
2022-10-13T20:54:16.884Z,12.41
2022-10-13T20:56:44.912Z,12.41
2022-10-13T20:59:15.349Z,12.41
2022-10-13T21:01:43.492Z,12.42
2022-10-13T21:04:11.779Z,12.42
2022-10-13T21:06:43.090Z,12.42
2022-10-13T21:09:11.949Z,12.42
2022-10-13T21:11:43.242Z,12.42
2022-10-13T21:14:13.344Z,12.43
2022-10-13T21:16:43.334Z,12.43
2022-10-13T21:19:13.147Z,12.44
2022-10-13T21:21:41.136Z,12.45
2022-10-13T21:24:10.289Z,12.44
2022-10-13T21:26:38.302Z,12.44
2022-10-13T21:29:07.117Z,12.44
2022-10-13T21:31:35.756Z,12.43
2022-10-13T21:34:04.291Z,12.43
2022-10-13T21:36:32.975Z,12.43
2022-10-13T21:39:06.148Z,12.42
2022-10-13T21:41:35.626Z,12.41
2022-10-13T21:44:03.781Z,12.41
2022-10-13T21:46:35.359Z,12.40
2022-10-13T21:49:06.421Z,12.39
2022-10-13T21:51:38.568Z,12.39
2022-10-13T21:54:12.834Z,12.38
2022-10-13T21:56:41.990Z,12.37
2022-10-13T21:59:12.017Z,12.37
2022-10-13T22:01:41.709Z,12.36
2022-10-13T22:04:16.655Z,12.34
2022-10-13T22:06:45.453Z,12.32
2022-10-13T22:12:01.710Z,12.28
2022-10-13T22:14:30.180Z,12.26
2022-10-13T22:16:57.960Z,12.24
2022-10-13T22:19:25.880Z,12.22
2022-10-13T22:21:53.888Z,12.19
2022-10-13T22:29:02.753Z,12.12
2022-10-13T22:31:36.910Z,12.09
2022-10-13T22:34:15.454Z,12.07
2022-10-13T22:36:45.067Z,12.05
2022-10-13T22:39:14.287Z,12.04
2022-10-13T22:41:43.356Z,12.04
2022-10-13T22:44:17.209Z,12.04
2022-10-13T22:46:49.411Z,12.05
2022-10-13T22:49:18.374Z,12.05
2022-10-13T22:51:46.539Z,12.07
2022-10-13T22:54:15.427Z,12.07
2022-10-13T22:56:44.747Z,12.09
2022-10-13T22:59:13.199Z,12.10
2022-10-13T23:01:42.347Z,12.12
2022-10-13T23:04:10.762Z,12.13
2022-10-13T23:06:39.769Z,12.14
2022-10-13T23:09:11.899Z,12.16
2022-10-13T23:11:40.463Z,12.17
2022-10-13T23:14:09.542Z,12.19
2022-10-13T23:16:37.789Z,12.21
2022-10-13T23:19:06.284Z,12.23
2022-10-13T23:21:34.420Z,12.25
2022-10-13T23:24:06.313Z,12.27
2022-10-13T23:26:36.041Z,12.29
2022-10-13T23:29:06.926Z,12.31
2022-10-13T23:31:34.862Z,12.32
2022-10-13T23:34:02.653Z,12.33
2022-10-13T23:36:32.854Z,12.34
2022-10-13T23:39:04.551Z,12.36
2022-10-13T23:41:38.630Z,12.37
2022-10-13T23:44:06.420Z,12.38
2022-10-13T23:46:34.399Z,12.38
2022-10-13T23:49:03.622Z,12.38
2022-10-13T23:51:33.829Z,12.39
2022-10-13T23:54:02.790Z,12.41
2022-10-13T23:56:31.091Z,12.42
2022-10-13T23:59:00.878Z,12.43
